Time;durP1;ratioP1;P1;durP2;ratioP2;P2;SDS_P1;SDS_P2;PMS_P1;PMS_P2;Temp;Humidity;BMP_temperature;BMP_pressure;BME280_temperature;BME280_humidity;BME280_pressure;Samples;Min_cycle;Max_cycle;Signal;HPM_P1;HPM_P2
2021/06/30 00:00:20;;;;;;;2.63;1.93;;;17.40;97.30;;;;;;5014671;28;20546;-76
2021/06/30 00:02:47;;;;;;;1.80;1.70;;;17.40;97.40;;;;;;5015369;28;20825;-76
2021/06/30 00:05:14;;;;;;;2.20;1.90;;;17.40;96.90;;;;;;5015877;28;20461;-76
2021/06/30 00:07:41;;;;;;;5.17;1.87;;;17.40;97.00;;;;;;5021137;28;20485;-76
2021/06/30 00:10:11;;;;;;;4.37;2.03;;;17.50;96.80;;;;;;5027798;28;20430;-75
2021/06/30 00:12:39;;;;;;;2.53;2.00;;;17.50;96.00;;;;;;5027235;28;20497;-75
2021/06/30 00:15:07;;;;;;;1.97;1.87;;;17.50;95.80;;;;;;5027279;28;20464;-76
2021/06/30 00:17:34;;;;;;;2.37;1.87;;;17.50;95.40;;;;;;5030333;28;20971;-77
2021/06/30 00:20:08;;;;;;;2.33;2.13;;;17.50;95.90;;;;;;5025021;28;20458;-77
2021/06/30 00:22:39;;;;;;;2.00;1.80;;;17.60;95.70;;;;;;5016832;28;20484;-75
2021/06/30 00:25:07;;;;;;;4.73;2.17;;;17.50;96.10;;;;;;5016125;28;20487;-75
2021/06/30 00:27:36;;;;;;;2.30;2.10;;;17.60;95.40;;;;;;5013412;28;20428;-76
2021/06/30 00:30:04;;;;;;;2.30;2.10;;;17.60;95.30;;;;;;5014852;28;20559;-76
2021/06/30 00:32:31;;;;;;;6.43;2.20;;;17.50;95.60;;;;;;5015320;28;20472;-77
2021/06/30 00:34:58;;;;;;;2.00;1.90;;;17.50;95.90;;;;;;5017018;28;20532;-75
2021/06/30 00:37:25;;;;;;;3.03;2.30;;;17.50;95.50;;;;;;5017736;28;20464;-75
2021/06/30 00:39:52;;;;;;;3.83;2.23;;;17.50;95.60;;;;;;5016914;28;20469;-77
2021/06/30 00:42:19;;;;;;;9.23;2.17;;;17.40;94.70;;;;;;5016114;28;20513;-76
2021/06/30 00:44:47;;;;;;;2.60;1.80;;;17.40;94.30;;;;;;5015920;28;20498;-76
2021/06/30 00:47:14;;;;;;;3.47;1.70;;;17.30;94.30;;;;;;5016867;28;21045;-76
2021/06/30 00:49:41;;;;;;;6.47;1.90;;;17.30;94.30;;;;;;5017920;28;20788;-77
2021/06/30 00:52:08;;;;;;;2.50;1.73;;;17.30;94.30;;;;;;5017703;28;20478;-77
2021/06/30 00:54:35;;;;;;;4.20;1.70;;;17.30;93.10;;;;;;5016539;28;20460;-75
2021/06/30 00:57:03;;;;;;;2.00;1.37;;;17.20;92.50;;;;;;5016399;28;20461;-76
2021/06/30 00:59:30;;;;;;;5.33;1.57;;;17.20;92.20;;;;;;5015721;28;20528;-75
2021/06/30 01:01:58;;;;;;;3.90;1.30;;;17.20;90.70;;;;;;5015389;28;21017;-76
2021/06/30 01:04:25;;;;;;;2.20;1.40;;;17.20;90.00;;;;;;5015790;28;20493;-77
2021/06/30 01:06:52;;;;;;;1.37;1.00;;;17.20;89.10;;;;;;5016059;28;20443;-77
2021/06/30 01:09:18;;;;;;;2.03;1.47;;;17.30;88.70;;;;;;5016271;28;20470;-77
2021/06/30 01:11:45;;;;;;;1.20;1.10;;;17.30;87.80;;;;;;5015131;28;20544;-77
2021/06/30 01:14:12;;;;;;;1.53;1.23;;;17.20;87.80;;;;;;5015760;28;20538;-76
2021/06/30 01:16:39;;;;;;;1.20;1.20;;;17.30;88.50;;;;;;5015635;28;20465;-76
2021/06/30 01:19:08;;;;;;;1.60;1.50;;;17.30;88.40;;;;;;5015412;28;20494;-77
2021/06/30 01:21:35;;;;;;;2.80;1.20;;;17.30;89.20;;;;;;5015150;28;20479;-76
2021/06/30 01:24:03;;;;;;;2.73;1.60;;;17.30;89.40;;;;;;5014972;28;20447;-76
2021/06/30 01:26:30;;;;;;;3.13;1.40;;;17.20;90.50;;;;;;5015606;28;20949;-74
2021/06/30 01:28:57;;;;;;;5.77;1.37;;;17.20;90.50;;;;;;5015051;28;20458;-74
2021/06/30 01:31:24;;;;;;;2.07;1.30;;;17.10;90.70;;;;;;5020139;28;20511;-75
2021/06/30 01:33:51;;;;;;;2.17;1.13;;;17.10;90.80;;;;;;5023424;28;20473;-76
2021/06/30 01:36:18;;;;;;;3.47;1.20;;;17.10;90.50;;;;;;5023905;28;20519;-76
2021/06/30 01:38:45;;;;;;;1.50;1.03;;;17.10;90.50;;;;;;5020544;28;20502;-76
2021/06/30 01:41:14;;;;;;;1.20;1.00;;;17.10;90.50;;;;;;5018886;28;20538;-76
2021/06/30 01:43:41;;;;;;;1.30;1.10;;;17.00;90.40;;;;;;5018402;28;20475;-75
2021/06/30 01:46:08;;;;;;;1.30;1.20;;;17.00;90.40;;;;;;5023923;28;20462;-74
2021/06/30 01:48:36;;;;;;;2.87;1.23;;;16.90;90.80;;;;;;5036626;28;20491;-76
2021/06/30 01:51:03;;;;;;;2.97;1.23;;;16.90;91.10;;;;;;5027330;28;20482;-74
2021/06/30 01:53:30;;;;;;;5.33;1.20;;;16.90;91.50;;;;;;5038503;28;20478;-74
2021/06/30 01:55:57;;;;;;;3.50;1.20;;;16.80;91.80;;;;;;5024466;28;20455;-76
2021/06/30 01:58:25;;;;;;;6.20;1.30;;;16.80;91.60;;;;;;5016654;28;20571;-76
2021/06/30 02:00:53;;;;;;;2.67;0.90;;;16.70;91.00;;;;;;5016503;28;20414;-76
2021/06/30 02:03:20;;;;;;;1.10;1.00;;;16.70;91.70;;;;;;5015016;28;20486;-75
2021/06/30 02:05:47;;;;;;;1.53;1.20;;;16.70;91.40;;;;;;5014721;28;20534;-75
2021/06/30 02:08:15;;;;;;;2.00;0.90;;;16.70;91.50;;;;;;5013655;28;20490;-75
2021/06/30 02:10:42;;;;;;;1.70;1.10;;;16.70;90.30;;;;;;5014761;28;20443;-75
2021/06/30 02:13:09;;;;;;;5.20;0.97;;;16.60;90.30;;;;;;5017000;28;20494;-76
2021/06/30 02:15:38;;;;;;;1.33;0.80;;;16.60;90.30;;;;;;5032077;28;20465;-75
2021/06/30 02:18:06;;;;;;;0.93;0.93;;;16.70;90.30;;;;;;5037582;28;20465;-75
2021/06/30 02:20:33;;;;;;;0.83;0.83;;;16.70;90.30;;;;;;5036182;28;20439;-75
2021/06/30 02:23:00;;;;;;;3.17;0.90;;;16.70;90.30;;;;;;5037962;28;20471;-75
2021/06/30 02:25:29;;;;;;;4.80;1.00;;;16.60;90.90;;;;;;5038218;28;20459;-73
2021/06/30 02:27:56;;;;;;;5.00;0.93;;;16.60;91.10;;;;;;5038161;28;20458;-73
2021/06/30 02:30:25;;;;;;;1.20;1.10;;;16.60;90.40;;;;;;5038395;28;20470;-73
2021/06/30 02:32:56;;;;;;;1.60;0.80;;;16.60;91.20;;;;;;5026990;28;20224;-76
2021/06/30 02:35:25;;;;;;;1.70;0.80;;;16.50;91.30;;;;;;5016153;28;20432;-76
2021/06/30 02:37:54;;;;;;;1.57;0.83;;;16.40;91.40;;;;;;5015751;28;20452;-76
2021/06/30 02:40:23;;;;;;;1.30;0.90;;;16.40;91.50;;;;;;5015405;28;20497;-76
2021/06/30 02:42:50;;;;;;;2.63;1.00;;;16.30;91.40;;;;;;5015777;28;20271;-74
2021/06/30 02:45:19;;;;;;;4.65;0.80;;;16.30;91.70;;;;;;5016014;28;20235;-77
2021/06/30 02:47:48;;;;;;;0.70;0.70;;;16.30;91.50;;;;;;5014661;28;20290;-76
2021/06/30 02:50:19;;;;;;;0.82;0.80;;;16.30;91.30;;;;;;5013791;28;20756;-76
2021/06/30 02:52:47;;;;;;;1.02;0.90;;;16.20;91.40;;;;;;5013679;28;20236;-75
2021/06/30 02:55:15;;;;;;;0.73;0.70;;;16.20;91.90;;;;;;5014165;28;20575;-76
2021/06/30 02:57:43;;;;;;;1.58;0.80;;;16.10;91.70;;;;;;5013312;28;20462;-76
2021/06/30 03:00:13;;;;;;;0.60;0.60;;;16.00;92.50;;;;;;5018713;28;20286;-76
2021/06/30 03:02:40;;;;;;;0.85;0.82;;;16.00;92.70;;;;;;5021661;28;20251;-74
2021/06/30 03:05:09;;;;;;;0.75;0.75;;;16.00;93.00;;;;;;5016917;28;20215;-76
2021/06/30 03:07:37;;;;;;;1.38;0.85;;;16.00;93.00;;;;;;5013340;28;20312;-76
2021/06/30 03:10:06;;;;;;;0.75;0.75;;;15.90;93.10;;;;;;5013184;28;20290;-75
2021/06/30 03:12:33;;;;;;;0.50;0.50;;;15.80;93.50;;;;;;5013304;28;20236;-76
2021/06/30 03:15:00;;;;;;;0.80;0.80;;;15.90;93.70;;;;;;5012915;28;20676;-75
2021/06/30 03:17:27;;;;;;;1.05;0.90;;;15.80;93.70;;;;;;5013491;28;20327;-76
2021/06/30 03:19:54;;;;;;;0.88;0.80;;;15.80;93.60;;;;;;5014144;28;20231;-76
2021/06/30 03:22:21;;;;;;;2.00;0.95;;;15.80;93.60;;;;;;5014508;28;20250;-75
2021/06/30 03:24:49;;;;;;;1.00;1.00;;;15.70;93.60;;;;;;5014764;28;20204;-77
2021/06/30 03:27:16;;;;;;;0.90;0.90;;;15.70;93.60;;;;;;5013735;28;20290;-77
2021/06/30 03:29:43;;;;;;;0.75;0.75;;;15.60;93.80;;;;;;5013549;28;20371;-77
2021/06/30 03:32:10;;;;;;;0.93;0.77;;;15.60;93.60;;;;;;5015120;28;20651;-77
2021/06/30 03:34:37;;;;;;;0.70;0.70;;;15.60;93.80;;;;;;5015681;28;20639;-75
2021/06/30 03:37:04;;;;;;;1.55;0.63;;;15.60;93.80;;;;;;5013579;28;20613;-75
2021/06/30 03:39:31;;;;;;;0.88;0.70;;;15.50;93.50;;;;;;5013401;28;20314;-75
2021/06/30 03:41:59;;;;;;;0.68;0.60;;;15.50;94.30;;;;;;5012876;28;20663;-75
2021/06/30 03:44:26;;;;;;;0.75;0.70;;;15.50;93.50;;;;;;5012708;28;20208;-74
2021/06/30 03:46:53;;;;;;;4.60;0.93;;;15.50;93.80;;;;;;5013137;28;20242;-75
2021/06/30 03:49:20;;;;;;;1.55;0.60;;;15.50;93.50;;;;;;5012699;28;20286;-76
2021/06/30 03:51:47;;;;;;;0.70;0.70;;;15.50;93.50;;;;;;5012984;28;20263;-75
2021/06/30 03:54:14;;;;;;;1.88;0.70;;;15.50;93.30;;;;;;5013760;28;20208;-76
2021/06/30 03:56:40;;;;;;;0.60;0.60;;;15.50;92.80;;;;;;5015255;28;20214;-75
2021/06/30 03:59:09;;;;;;;0.60;0.60;;;15.50;92.40;;;;;;5014830;28;20252;-76
2021/06/30 04:01:36;;;;;;;1.50;0.80;;;15.50;92.20;;;;;;5016454;28;20228;-75
2021/06/30 04:04:06;;;;;;;0.60;0.60;;;15.50;90.90;;;;;;5016401;28;20212;-76
2021/06/30 04:06:34;;;;;;;0.50;0.50;;;15.60;90.80;;;;;;5021320;28;20208;-76
2021/06/30 04:09:01;;;;;;;0.98;0.60;;;15.60;90.40;;;;;;5032222;28;20207;-76
2021/06/30 04:11:28;;;;;;;0.65;0.65;;;15.60;89.80;;;;;;5031267;28;20235;-73
2021/06/30 04:13:55;;;;;;;0.77;0.70;;;15.60;89.80;;;;;;5039966;28;20208;-77
2021/06/30 04:16:23;;;;;;;1.60;0.50;;;15.60;89.80;;;;;;5022419;28;20240;-76
2021/06/30 04:18:50;;;;;;;0.57;0.57;;;15.60;89.80;;;;;;5017071;28;20684;-76
2021/06/30 04:21:17;;;;;;;2.75;0.75;;;15.70;89.90;;;;;;5017715;28;20291;-76
2021/06/30 04:23:44;;;;;;;1.27;0.75;;;15.80;90.00;;;;;;5029753;28;20227;-77
2021/06/30 04:26:11;;;;;;;0.68;0.60;;;15.70;89.00;;;;;;5018034;28;20680;-78
2021/06/30 04:28:38;;;;;;;0.90;0.70;;;15.70;88.90;;;;;;5016293;28;20233;-76
2021/06/30 04:31:05;;;;;;;1.23;0.98;;;15.70;88.40;;;;;;5016612;28;20755;-76
2021/06/30 04:33:33;;;;;;;1.90;1.80;;;15.80;88.30;;;;;;5016121;28;20212;-76
2021/06/30 04:36:00;;;;;;;1.95;0.70;;;15.80;87.90;;;;;;5015843;28;20208;-76
2021/06/30 04:38:27;;;;;;;0.60;0.60;;;15.90;86.80;;;;;;5016609;28;20306;-77
2021/06/30 04:40:54;;;;;;;0.88;0.85;;;15.90;85.90;;;;;;5015698;28;20674;-77
2021/06/30 04:43:21;;;;;;;0.50;0.50;;;16.00;85.90;;;;;;5015633;28;20271;-77
2021/06/30 04:45:49;;;;;;;0.95;0.75;;;16.00;84.00;;;;;;5017552;28;20674;-75
2021/06/30 04:48:16;;;;;;;0.60;0.60;;;16.10;84.20;;;;;;5019356;28;20295;-76
2021/06/30 04:50:44;;;;;;;2.35;0.65;;;16.20;81.90;;;;;;5019986;28;20235;-76
2021/06/30 04:53:11;;;;;;;1.40;0.50;;;16.10;81.30;;;;;;5018720;28;20232;-76
2021/06/30 04:55:38;;;;;;;1.07;0.73;;;16.20;81.90;;;;;;5018953;28;20207;-74
2021/06/30 04:58:07;;;;;;;0.70;0.70;;;16.30;79.80;;;;;;5035513;28;20490;-75
2021/06/30 05:00:35;;;;;;;1.27;0.60;;;16.50;79.10;;;;;;5030840;28;20486;-76
2021/06/30 05:03:02;;;;;;;1.47;0.80;;;16.70;77.10;;;;;;5034183;28;20530;-78
2021/06/30 05:05:29;;;;;;;0.87;0.83;;;17.00;74.00;;;;;;5021790;28;20472;-78
2021/06/30 05:07:58;;;;;;;0.70;0.53;;;17.40;73.30;;;;;;5022900;28;20495;-79
2021/06/30 05:10:25;;;;;;;1.13;0.50;;;17.80;68.10;;;;;;5021752;28;20492;-78
2021/06/30 05:12:53;;;;;;;1.73;0.60;;;17.90;65.90;;;;;;5019697;28;20491;-77
2021/06/30 05:15:22;;;;;;;0.80;0.73;;;18.00;66.00;;;;;;5020415;28;20482;-78
2021/06/30 05:17:49;;;;;;;0.77;0.77;;;18.30;65.50;;;;;;5016414;28;20456;-77
2021/06/30 05:20:16;;;;;;;1.23;0.80;;;18.40;63.40;;;;;;5016021;28;20915;-78
2021/06/30 05:22:43;;;;;;;0.57;0.57;;;18.30;63.90;;;;;;5018121;28;20560;-78
2021/06/30 05:25:12;;;;;;;1.87;0.70;;;18.20;64.30;;;;;;5018535;28;20470;-78
2021/06/30 05:27:39;;;;;;;1.13;0.50;;;18.00;64.80;;;;;;5020754;28;20456;-77
2021/06/30 05:30:08;;;;;;;1.33;0.60;;;18.10;65.20;;;;;;5021061;28;20516;-77
2021/06/30 05:32:36;;;;;;;2.83;0.60;;;18.40;64.30;;;;;;5025594;28;20552;-78
2021/06/30 05:35:04;;;;;;;0.60;0.60;;;19.10;59.80;;;;;;5027322;28;20466;-77
2021/06/30 05:37:31;;;;;;;0.93;0.60;;;20.00;56.60;;;;;;5022021;28;20500;-77
2021/06/30 05:39:58;;;;;;;0.73;0.63;;;20.70;54.20;;;;;;5022054;28;20537;-78
2021/06/30 05:42:27;;;;;;;1.27;0.93;;;21.40;50.20;;;;;;5016679;28;20485;-77
2021/06/30 05:44:54;;;;;;;0.93;0.80;;;21.60;48.90;;;;;;5015782;28;20849;-76
2021/06/30 05:47:21;;;;;;;0.53;0.53;;;20.90;49.70;;;;;;5016322;28;20500;-76
2021/06/30 05:49:48;;;;;;;0.90;0.60;;;20.80;51.20;;;;;;5020304;28;20950;-79
2021/06/30 05:52:15;;;;;;;0.57;0.57;;;20.60;51.40;;;;;;5023224;28;20553;-79
2021/06/30 05:54:42;;;;;;;0.83;0.50;;;20.40;51.20;;;;;;5018046;28;20464;-76
2021/06/30 05:57:09;;;;;;;0.70;0.70;;;20.00;53.70;;;;;;5018307;28;20500;-78
2021/06/30 05:59:37;;;;;;;0.60;0.57;;;19.70;54.10;;;;;;5016397;28;20543;-77
2021/06/30 06:02:04;;;;;;;4.50;1.00;;;19.20;55.70;;;;;;5017564;28;20484;-76
2021/06/30 06:04:32;;;;;;;0.80;0.60;;;18.90;56.80;;;;;;5018991;28;20501;-79
2021/06/30 06:06:59;;;;;;;1.87;0.60;;;18.80;57.50;;;;;;5029984;28;20481;-75
2021/06/30 06:09:26;;;;;;;1.00;0.90;;;18.50;59.30;;;;;;5036143;28;20536;-76
2021/06/30 06:11:53;;;;;;;0.70;0.67;;;18.50;59.50;;;;;;5034644;28;20483;-81
2021/06/30 06:14:20;;;;;;;2.50;0.80;;;18.50;60.10;;;;;;5032885;28;20473;-77
2021/06/30 06:16:48;;;;;;;1.30;0.70;;;18.70;59.80;;;;;;5034834;28;20463;-79
2021/06/30 06:19:15;;;;;;;5.60;1.07;;;18.70;62.00;;;;;;5034001;28;20446;-80
2021/06/30 06:21:42;;;;;;;1.43;0.60;;;18.70;60.30;;;;;;5038886;28;20478;-78
2021/06/30 06:24:09;;;;;;;0.83;0.80;;;18.60;60.40;;;;;;5049599;28;20540;-79
2021/06/30 06:26:36;;;;;;;2.27;0.80;;;18.50;60.10;;;;;;5045553;28;20456;-79
2021/06/30 06:29:04;;;;;;;0.93;0.80;;;18.30;61.80;;;;;;5056472;28;20443;-78
2021/06/30 06:31:31;;;;;;;2.10;0.80;;;18.20;61.80;;;;;;5043867;28;20478;-78
2021/06/30 06:33:59;;;;;;;3.10;0.80;;;18.20;62.80;;;;;;5037305;28;20454;-78
2021/06/30 06:36:26;;;;;;;1.43;1.00;;;18.20;62.90;;;;;;5023724;28;20455;-77
2021/06/30 06:38:53;;;;;;;1.00;0.90;;;18.20;63.10;;;;;;5016471;28;20556;-78
2021/06/30 06:41:20;;;;;;;0.80;0.80;;;18.20;63.00;;;;;;5014305;28;20500;-79
2021/06/30 06:43:47;;;;;;;0.93;0.80;;;18.20;62.40;;;;;;5015806;28;20452;-78
2021/06/30 06:46:14;;;;;;;2.53;0.87;;;18.40;63.00;;;;;;5014940;28;20988;-78
2021/06/30 06:48:42;;;;;;;1.87;0.90;;;18.60;61.90;;;;;;5014760;28;20469;-79
2021/06/30 06:51:10;;;;;;;1.20;0.70;;;18.40;62.40;;;;;;5015252;28;20473;-77
2021/06/30 06:53:37;;;;;;;3.67;0.90;;;18.30;66.60;;;;;;5021435;28;20947;-78
2021/06/30 06:56:09;;;;;;;1.00;1.00;;;18.00;72.40;;;;;;5017026;28;20523;-80
2021/06/30 06:58:36;;;;;;;1.10;1.00;;;17.70;77.70;;;;;;5017975;28;20451;-80
2021/06/30 07:01:03;;;;;;;3.40;1.10;;;17.20;79.70;;;;;;5020041;28;20564;-79
2021/06/30 07:03:30;;;;;;;1.90;1.00;;;17.00;84.50;;;;;;5019526;28;20479;-79
2021/06/30 07:05:56;;;;;;;2.13;1.30;;;16.70;85.80;;;;;;5020135;28;20517;-79
2021/06/30 07:08:25;;;;;;;1.80;1.03;;;16.60;91.20;;;;;;5017804;28;20466;-78
2021/06/30 07:10:52;;;;;;;2.00;1.20;;;16.50;93.10;;;;;;5016823;28;20506;-78
2021/06/30 07:13:18;;;;;;;1.10;1.00;;;16.40;95.00;;;;;;5017892;28;20487;-80
2021/06/30 07:15:45;;;;;;;1.67;1.13;;;16.40;94.50;;;;;;5017672;28;20204;-79
2021/06/30 07:18:15;;;;;;;1.33;1.23;;;16.30;94.70;;;;;;5015098;28;20250;-78
2021/06/30 07:20:42;;;;;;;4.17;1.63;;;16.30;95.40;;;;;;5013914;28;20286;-79
2021/06/30 07:23:09;;;;;;;1.48;1.17;;;16.20;94.70;;;;;;5014193;28;20468;-79
2021/06/30 07:25:38;;;;;;;1.40;1.30;;;16.20;95.00;;;;;;5014651;28;20231;-79
2021/06/30 07:28:07;;;;;;;2.80;1.20;;;16.20;95.10;;;;;;5021536;28;20490;-78
2021/06/30 07:30:34;;;;;;;1.60;1.50;;;16.20;95.00;;;;;;5020753;28;20818;-79
2021/06/30 07:33:01;;;;;;;1.50;1.40;;;16.30;95.50;;;;;;5014151;28;20876;-78
2021/06/30 07:35:28;;;;;;;2.20;1.57;;;16.20;96.30;;;;;;5025636;28;20870;-79
2021/06/30 07:37:55;;;;;;;2.50;1.40;;;16.30;96.30;;;;;;5033696;28;20510;-78
2021/06/30 07:40:22;;;;;;;2.60;1.00;;;16.40;97.50;;;;;;5034116;28;20547;-78
2021/06/30 07:42:50;;;;;;;1.20;1.10;;;16.50;96.30;;;;;;5035516;28;20484;-79
2021/06/30 07:45:18;;;;;;;1.70;1.40;;;16.60;95.00;;;;;;5038358;28;21029;-79
2021/06/30 07:47:44;;;;;;;1.10;1.00;;;16.50;94.50;;;;;;5044769;28;20513;-80
2021/06/30 07:50:12;;;;;;;1.47;1.00;;;16.60;94.00;;;;;;5051776;28;20424;-81
2021/06/30 07:52:39;;;;;;;1.43;1.13;;;16.60;92.50;;;;;;5050669;28;20553;-79
2021/06/30 07:55:07;;;;;;;0.90;0.90;;;16.70;94.00;;;;;;5049705;28;20481;-79
2021/06/30 07:57:34;;;;;;;1.43;0.97;;;16.80;93.10;;;;;;5048292;28;20461;-80
2021/06/30 08:00:02;;;;;;;1.13;0.70;;;16.70;92.20;;;;;;5028134;28;21034;-77
2021/06/30 08:02:29;;;;;;;1.03;0.93;;;16.60;92.70;;;;;;5067849;28;20476;-79
2021/06/30 08:04:56;;;;;;;2.00;1.00;;;16.70;93.00;;;;;;5062681;28;20614;-78
2021/06/30 08:07:23;;;;;;;1.23;0.90;;;16.60;93.10;;;;;;5065796;28;20491;-79
2021/06/30 08:09:50;;;;;;;3.33;1.30;;;16.40;93.90;;;;;;5064796;28;20437;-79
2021/06/30 08:12:17;;;;;;;2.67;1.03;;;16.40;95.30;;;;;;5060737;28;20512;-78
2021/06/30 08:14:44;;;;;;;1.20;1.15;;;16.40;95.10;;;;;;5059746;28;20506;-78
2021/06/30 08:17:12;;;;;;;1.60;1.30;;;16.40;95.80;;;;;;5063235;28;20282;-80
2021/06/30 08:19:39;;;;;;;2.03;1.23;;;16.40;96.10;;;;;;5064360;28;20521;-80
2021/06/30 08:22:10;;;;;;;1.53;1.40;;;16.40;96.70;;;;;;5063555;28;20494;-79
2021/06/30 08:24:37;;;;;;;3.72;1.42;;;16.40;97.00;;;;;;5050463;28;20474;-80
2021/06/30 08:27:05;;;;;;;2.55;1.25;;;16.10;97.10;;;;;;5049718;28;20207;-78
2021/06/30 08:29:32;;;;;;;2.85;1.23;;;15.90;98.20;;;;;;5047014;28;20207;-79
2021/06/30 08:31:59;;;;;;;3.97;1.40;;;16.00;99.20;;;;;;5048105;28;20227;-80
2021/06/30 08:34:28;;;;;;;2.20;1.55;;;16.00;99.90;;;;;;5052636;28;20507;-81
2021/06/30 08:36:59;;;;;;;1.55;1.25;;;15.90;99.90;;;;;;5052933;28;20216;-81
2021/06/30 08:39:26;;;;;;;2.47;1.40;;;16.00;99.60;;;;;;5048488;28;20211;-81
2021/06/30 08:41:54;;;;;;;1.42;1.33;;;15.90;99.70;;;;;;5046488;28;20498;-79
2021/06/30 08:44:21;;;;;;;1.92;1.20;;;15.80;99.30;;;;;;5053016;28;20624;-79
2021/06/30 08:46:49;;;;;;;2.40;2.20;;;15.70;99.30;;;;;;5055704;28;20203;-79
2021/06/30 08:49:20;;;;;;;2.45;1.52;;;15.70;99.30;;;;;;5059852;28;20198;-80
2021/06/30 08:51:51;;;;;;;1.85;1.20;;;15.70;99.90;;;;;;5056661;28;20223;-78
2021/06/30 08:54:20;;;;;;;2.58;1.05;;;15.70;99.90;;;;;;5058163;28;20197;-79
2021/06/30 08:56:47;;;;;;;2.30;1.50;;;15.70;99.90;;;;;;5069769;28;20238;-79
2021/06/30 08:59:14;;;;;;;1.60;1.20;;;15.70;99.90;;;;;;5071741;28;20230;-79
2021/06/30 09:01:43;;;;;;;1.27;1.20;;;15.90;99.90;;;;;;5066009;28;20485;-78
2021/06/30 09:04:12;;;;;;;5.95;1.60;;;15.90;99.90;;;;;;5071055;28;20241;-79
2021/06/30 09:06:39;;;;;;;1.90;1.40;;;16.00;99.90;;;;;;5071344;28;20233;-78
2021/06/30 09:09:10;;;;;;;1.50;1.40;;;15.90;99.20;;;;;;5072444;28;20456;-79
2021/06/30 09:11:37;;;;;;;1.40;1.40;;;16.00;99.70;;;;;;5065304;28;20222;-79
2021/06/30 09:14:15;;;;;;;1.40;1.30;;;16.00;99.20;;;;;;5072141;28;20821;-79
2021/06/30 09:17:06;;;;;;;1.23;1.13;;;16.10;98.80;;;;;;5069166;28;20483;-79
2021/06/30 09:19:52;;;;;;;1.53;1.40;;;16.20;97.40;;;;;;5060266;28;20461;-78
2021/06/30 09:22:20;;;;;;;1.20;1.10;;;16.20;97.40;;;;;;5060005;28;20587;-78
2021/06/30 09:24:49;;;;;;;1.13;1.13;;;16.40;97.90;;;;;;5061093;28;20524;-80
2021/06/30 09:27:17;;;;;;;1.67;1.20;;;16.50;97.50;;;;;;5062540;28;20211;-79
2021/06/30 09:29:45;;;;;;;1.37;1.27;;;16.70;96.10;;;;;;5064999;28;20484;-79
2021/06/30 09:32:13;;;;;;;1.10;1.10;;;16.90;94.60;;;;;;5062933;28;20460;-78
2021/06/30 09:34:41;;;;;;;1.17;1.17;;;16.80;94.10;;;;;;5068546;28;20442;-79
2021/06/30 09:37:10;;;;;;;1.33;1.10;;;17.20;94.20;;;;;;5063179;28;20465;-79
2021/06/30 09:39:39;;;;;;;1.00;1.00;;;17.50;92.80;;;;;;5064224;28;20429;-79
2021/06/30 09:42:09;;;;;;;1.00;0.90;;;17.60;90.10;;;;;;5062140;28;20517;-79
2021/06/30 09:44:37;;;;;;;1.13;0.90;;;17.70;88.50;;;;;;5056733;28;20482;-78
2021/06/30 09:47:05;;;;;;;4.00;1.10;;;17.80;88.00;;;;;;5063066;28;20861;-79
2021/06/30 09:49:33;;;;;;;2.20;0.93;;;18.10;87.40;;;;;;5063881;28;20434;-79
2021/06/30 09:52:09;;;;;;;1.30;1.10;;;18.30;85.70;;;;;;5072121;28;20975;-80
2021/06/30 09:54:37;;;;;;;2.83;1.10;;;18.60;84.10;;;;;;5088538;28;20447;-77
2021/06/30 09:57:07;;;;;;;1.07;0.90;;;18.70;77.40;;;;;;5084837;28;20494;-78
2021/06/30 09:59:38;;;;;;;1.27;1.17;;;18.80;73.80;;;;;;5078480;28;20811;-79
2021/06/30 10:02:08;;;;;;;2.00;0.67;;;19.00;72.60;;;;;;5088086;28;20498;-78
2021/06/30 10:04:36;;;;;;;0.60;0.60;;;19.60;71.20;;;;;;5081909;28;20445;-78
2021/06/30 10:07:07;;;;;;;0.70;0.60;;;20.10;68.60;;;;;;5065807;28;20453;-78
2021/06/30 10:09:35;;;;;;;1.33;0.70;;;20.40;62.90;;;;;;5063456;28;20431;-78
2021/06/30 10:12:06;;;;;;;0.57;0.57;;;20.40;60.80;;;;;;5065011;28;20464;-77
2021/06/30 10:14:35;;;;;;;1.00;0.90;;;20.40;60.10;;;;;;5070241;28;20431;-78
2021/06/30 10:17:03;;;;;;;1.63;1.00;;;20.50;63.10;;;;;;5090941;28;20525;-79
2021/06/30 10:19:30;;;;;;;0.70;0.70;;;20.90;60.50;;;;;;5088853;28;20476;-79
2021/06/30 10:21:58;;;;;;;2.53;0.80;;;20.70;57.30;;;;;;5090448;28;20451;-80
2021/06/30 10:24:26;;;;;;;0.63;0.63;;;20.60;59.20;;;;;;5084726;28;20846;-78
2021/06/30 10:26:54;;;;;;;0.80;0.80;;;20.60;59.20;;;;;;5068553;28;20444;-80
2021/06/30 10:29:25;;;;;;;1.23;0.70;;;20.90;59.40;;;;;;5044602;28;20477;-78
2021/06/30 10:31:57;;;;;;;1.13;0.70;;;20.80;57.50;;;;;;5043211;28;20452;-77
2021/06/30 10:34:35;;;;;;;0.80;0.80;;;20.90;57.70;;;;;;5040587;28;20872;-78
2021/06/30 10:37:02;;;;;;;1.03;0.80;;;21.00;56.10;;;;;;5037979;28;20476;-80
2021/06/30 10:39:43;;;;;;;0.80;0.80;;;21.30;57.50;;;;;;5036120;28;20541;-78
2021/06/30 10:42:22;;;;;;;0.90;0.83;;;21.30;53.90;;;;;;5037072;28;21174;-77
2021/06/30 10:44:52;;;;;;;2.00;0.80;;;21.30;53.40;;;;;;5037983;28;20434;-78
2021/06/30 10:47:32;;;;;;;1.53;0.70;;;21.40;54.30;;;;;;5035685;28;20473;-77
2021/06/30 10:50:23;;;;;;;0.90;0.50;;;21.30;54.30;;;;;;5038767;28;20772;-77
2021/06/30 10:52:51;;;;;;;0.73;0.70;;;21.40;53.60;;;;;;5051297;28;20459;-77
2021/06/30 10:55:48;;;;;;;1.90;1.27;;;21.50;53.20;;;;;;5053226;28;20460;-77
2021/06/30 10:58:17;;;;;;;0.90;0.70;;;22.10;51.60;;;;;;5052730;28;20458;-78
2021/06/30 11:00:45;;;;;;;1.23;0.90;;;22.40;48.90;;;;;;5051966;28;20452;-77
2021/06/30 11:03:28;;;;;;;0.70;0.70;;;22.40;47.60;;;;;;5059266;28;20473;-77
2021/06/30 11:05:56;;;;;;;0.83;0.83;;;22.00;49.70;;;;;;5060334;28;20447;-77
2021/06/30 11:08:44;;;;;;;1.00;0.90;;;22.30;50.20;;;;;;5059365;28;20411;-75
2021/06/30 11:11:12;;;;;;;0.77;0.77;;;22.60;48.30;;;;;;5076976;28;20490;-77
2021/06/30 11:14:00;;;;;;;2.33;0.90;;;22.80;47.10;;;;;;5072536;28;20434;-78
2021/06/30 11:16:50;;;;;;;0.70;0.70;;;22.60;46.50;;;;;;5060338;28;20794;-77
2021/06/30 11:19:50;;;;;;;0.70;0.70;;;22.10;48.10;;;;;;5036701;28;20490;-77
2021/06/30 11:22:28;;;;;;;4.30;1.10;;;21.70;47.80;;;;;;5037978;28;20468;-78
2021/06/30 11:24:56;;;;;;;2.30;0.80;;;21.40;50.20;;;;;;5052288;28;20431;-77
2021/06/30 11:27:44;;;;;;;0.97;0.83;;;21.30;50.10;;;;;;5057902;28;20449;-78
2021/06/30 11:30:13;;;;;;;1.70;0.80;;;21.50;48.80;;;;;;5056811;28;20509;-77
2021/06/30 11:32:49;;;;;;;1.50;0.80;;;21.40;47.80;;;;;;5058545;28;20473;-77
2021/06/30 11:35:40;;;;;;;0.90;0.77;;;21.10;48.20;;;;;;5058825;28;20428;-77
2021/06/30 11:38:21;;;;;;;1.33;0.50;;;21.40;47.40;;;;;;5046603;28;20458;-79
2021/06/30 11:43:40;;;;;;;0.97;0.97;;;21.60;46.30;;;;;;5036838;28;20406;-78
2021/06/30 11:46:07;;;;;;;1.23;0.80;;;21.80;46.50;;;;;;5046828;28;20424;-76
2021/06/30 11:48:35;;;;;;;1.50;0.90;;;21.70;46.50;;;;;;5052657;28;20417;-78
2021/06/30 11:51:05;;;;;;;1.83;0.83;;;21.80;48.30;;;;;;5053768;28;20479;-76
2021/06/30 11:53:45;;;;;;;0.70;0.70;;;21.80;48.50;;;;;;5055587;28;20478;-77
2021/06/30 11:56:31;;;;;;;5.37;1.00;;;21.80;48.00;;;;;;5054526;28;20460;-78
2021/06/30 11:58:58;;;;;;;1.17;0.77;;;21.80;49.10;;;;;;5057288;28;20513;-77
2021/06/30 12:01:28;;;;;;;1.33;0.70;;;22.10;48.60;;;;;;5077059;28;20531;-77
2021/06/30 12:04:16;;;;;;;1.27;0.63;;;22.40;47.30;;;;;;5076057;28;20770;-78
2021/06/30 12:06:45;;;;;;;1.00;0.73;;;22.70;47.60;;;;;;5071586;28;20488;-78
2021/06/30 12:09:16;;;;;;;0.70;0.70;;;22.70;46.60;;;;;;5076290;28;20521;-77
2021/06/30 12:11:45;;;;;;;0.63;0.60;;;22.60;48.40;;;;;;5084006;22;20508;-78
2021/06/30 12:14:13;;;;;;;0.93;0.70;;;22.50;47.40;;;;;;5035873;28;20463;-78
2021/06/30 12:16:42;;;;;;;1.50;0.93;;;22.40;47.20;;;;;;5032186;28;20501;-77
2021/06/30 12:19:10;;;;;;;1.27;0.90;;;22.30;47.30;;;;;;5030996;28;20463;-77
2021/06/30 12:21:38;;;;;;;0.60;0.60;;;22.10;47.80;;;;;;5032213;28;20518;-77
2021/06/30 12:24:13;;;;;;;1.00;0.70;;;22.10;48.00;;;;;;5033989;28;20457;-77
2021/06/30 12:26:56;;;;;;;1.80;0.87;;;21.60;50.40;;;;;;5033038;28;20539;-77
2021/06/30 12:29:23;;;;;;;1.27;0.87;;;20.90;55.20;;;;;;5035599;28;20464;-76
2021/06/30 12:31:51;;;;;;;3.07;1.27;;;20.10;59.90;;;;;;5040055;28;20477;-77
2021/06/30 12:34:18;;;;;;;3.37;1.40;;;19.50;66.40;;;;;;5050663;28;20818;-78
2021/06/30 12:36:45;;;;;;;2.30;1.30;;;18.90;74.20;;;;;;5045816;28;20492;-79
2021/06/30 12:39:21;;;;;;;1.17;1.00;;;18.70;79.90;;;;;;5044158;28;20490;-79
2021/06/30 12:41:53;;;;;;;1.80;1.30;;;18.60;84.10;;;;;;5036831;28;20495;-80
2021/06/30 12:44:21;;;;;;;1.30;1.23;;;18.70;83.20;;;;;;5035371;28;20475;-79
2021/06/30 12:46:48;;;;;;;1.63;1.10;;;18.70;81.40;;;;;;5031566;28;20960;-77
2021/06/30 12:49:17;;;;;;;1.10;1.10;;;19.00;84.00;;;;;;5024693;28;20499;-78
2021/06/30 12:51:44;;;;;;;3.30;1.00;;;19.30;80.10;;;;;;5035326;28;20475;-79
2021/06/30 12:54:12;;;;;;;1.37;1.00;;;19.70;78.80;;;;;;5038327;28;20468;-78
2021/06/30 12:56:43;;;;;;;1.10;1.03;;;20.40;74.40;;;;;;5031950;28;20515;-77
2021/06/30 12:59:15;;;;;;;1.47;1.10;;;20.60;70.00;;;;;;5029364;28;20801;-78